Time;durP1;ratioP1;P1;durP2;ratioP2;P2;SDS_P1;SDS_P2;PMS_P1;PMS_P2;Temp;Humidity;BMP_temperature;BMP_pressure;BME280_temperature;BME280_humidity;BME280_pressure;Samples;Min_cycle;Max_cycle;Signal;HPM_P1;HPM_P2
2023/01/05 00:01:36;;;;;;;3.72;0.70;;;12.10;99.90;;;;;;5053626;28;20070;-65
2023/01/05 00:04:02;;;;;;;2.33;0.60;;;12.20;99.90;;;;;;5052978;28;20025;-65
2023/01/05 00:06:28;;;;;;;4.85;1.13;;;12.20;99.90;;;;;;5053842;28;20094;-65
2023/01/05 00:08:54;;;;;;;1.25;0.52;;;12.20;99.90;;;;;;5052578;28;20479;-65
2023/01/05 00:22:31;;;;;;;2.83;0.47;;;12.20;99.90;;;;;;5054454;28;20082;-66
2023/01/05 00:25:00;;;;;;;0.57;0.40;;;12.20;99.90;;;;;;5053671;28;20025;-64
2023/01/05 00:27:26;;;;;;;3.38;0.80;;;12.30;99.90;;;;;;5053508;28;20037;-64
2023/01/05 00:29:52;;;;;;;2.28;1.20;;;12.20;99.90;;;;;;5052251;28;20124;-64
2023/01/05 00:32:18;;;;;;;5.00;0.65;;;12.20;99.90;;;;;;5052175;28;20048;-64
2023/01/05 00:34:43;;;;;;;4.60;0.55;;;12.20;99.90;;;;;;5052076;28;20053;-64
2023/01/05 00:37:09;;;;;;;4.20;0.85;;;12.10;99.90;;;;;;5052852;28;20434;-64
2023/01/05 00:39:34;;;;;;;3.78;0.68;;;12.10;99.90;;;;;;5052124;28;20476;-64
2023/01/05 00:42:00;;;;;;;2.65;0.50;;;12.10;99.90;;;;;;5053397;28;20021;-66
2023/01/05 00:44:25;;;;;;;8.85;1.10;;;12.10;99.90;;;;;;5052341;28;20033;-64
2023/01/05 00:46:51;;;;;;;6.60;1.63;;;12.00;99.90;;;;;;5052404;28;20064;-64
2023/01/05 00:49:16;;;;;;;8.88;1.35;;;12.00;99.90;;;;;;5052820;28;20060;-64
2023/01/05 00:51:42;;;;;;;11.48;1.23;;;12.00;99.90;;;;;;5051911;28;20065;-64
2023/01/05 00:54:07;;;;;;;7.85;0.93;;;12.00;99.90;;;;;;5053364;28;20486;-64
2023/01/05 00:56:33;;;;;;;10.10;1.30;;;12.00;99.90;;;;;;5051835;28;20021;-65
2023/01/05 00:58:58;;;;;;;7.85;1.88;;;12.00;99.90;;;;;;5052419;28;20017;-65
2023/01/05 01:01:24;;;;;;;6.60;1.00;;;12.00;99.90;;;;;;5052090;28;20021;-65
2023/01/05 01:03:49;;;;;;;14.05;2.58;;;11.90;99.90;;;;;;5053040;28;20040;-66
2023/01/05 01:06:16;;;;;;;5.25;0.85;;;11.90;99.90;;;;;;5052953;28;20029;-65
2023/01/05 01:08:41;;;;;;;11.95;1.88;;;11.80;99.90;;;;;;5051718;28;20119;-66
2023/01/05 01:11:08;;;;;;;9.02;1.83;;;11.90;99.90;;;;;;5052769;28;20483;-66
2023/01/05 01:13:34;;;;;;;7.22;1.35;;;11.80;99.90;;;;;;5051822;28;20052;-66
2023/01/05 01:16:12;;;;;;;11.20;1.38;;;11.70;99.90;;;;;;5053353;28;20057;-66
2023/01/05 01:18:37;;;;;;;5.50;1.13;;;11.70;99.90;;;;;;5053345;28;20473;-65
2023/01/05 01:21:03;;;;;;;5.03;1.38;;;11.80;99.90;;;;;;5051688;28;20082;-65
2023/01/05 01:23:29;;;;;;;7.75;1.58;;;11.70;99.90;;;;;;5052971;28;20032;-65
2023/01/05 01:25:55;;;;;;;11.35;1.58;;;11.70;99.90;;;;;;5053172;28;20035;-66
2023/01/05 01:28:22;;;;;;;6.22;1.10;;;11.70;99.90;;;;;;5051425;28;20120;-65
2023/01/05 01:30:47;;;;;;;12.77;1.33;;;11.60;99.90;;;;;;5052621;28;20029;-65
2023/01/05 01:33:13;;;;;;;7.47;1.13;;;11.60;99.90;;;;;;5051675;28;20120;-65
2023/01/05 01:35:38;;;;;;;6.97;1.27;;;11.60;99.90;;;;;;5051519;28;20074;-66
2023/01/05 01:38:04;;;;;;;8.55;1.55;;;11.50;99.90;;;;;;5052641;28;20500;-65
2023/01/05 01:40:29;;;;;;;10.10;1.92;;;11.50;99.90;;;;;;5053195;28;20017;-65
2023/01/05 01:42:55;;;;;;;10.73;1.42;;;11.50;99.90;;;;;;5052646;28;20025;-65
2023/01/05 01:45:23;;;;;;;12.90;2.10;;;11.50;99.90;;;;;;5051651;28;20021;-65
2023/01/05 01:47:56;;;;;;;9.95;1.20;;;11.50;99.90;;;;;;5051449;28;20021;-66
2023/01/05 01:50:26;;;;;;;11.35;1.75;;;11.50;99.90;;;;;;5051497;28;20558;-66
2023/01/05 01:52:56;;;;;;;8.48;1.70;;;11.50;99.90;;;;;;5052245;28;20033;-65
2023/01/05 01:55:23;;;;;;;9.23;1.52;;;11.40;99.90;;;;;;5051301;28;20025;-65
2023/01/05 01:57:49;;;;;;;9.20;1.35;;;11.40;99.90;;;;;;5051157;28;20025;-65
2023/01/05 02:00:17;;;;;;;12.40;2.20;;;11.40;99.90;;;;;;5051247;28;20067;-65
2023/01/05 02:02:48;;;;;;;15.48;2.55;;;11.30;99.90;;;;;;5051618;28;20036;-66
2023/01/05 02:05:15;;;;;;;12.07;1.77;;;11.30;99.90;;;;;;5051339;28;20032;-66
2023/01/05 02:07:46;;;;;;;11.25;1.77;;;11.30;99.90;;;;;;5051184;28;20025;-66
2023/01/05 02:10:15;;;;;;;21.00;2.60;;;11.30;99.90;;;;;;5051348;28;20063;-66
2023/01/05 02:13:06;;;;;;;6.07;1.42;;;11.30;99.90;;;;;;5051956;28;20021;-66
2023/01/05 02:15:42;;;;;;;17.57;2.20;;;11.30;99.90;;;;;;5052359;28;20058;-66
2023/01/05 02:18:26;;;;;;;9.70;1.58;;;11.20;99.90;;;;;;5052229;28;20040;-65
2023/01/05 02:21:16;;;;;;;11.63;2.33;;;11.20;99.90;;;;;;5055115;28;20025;-66
2023/01/05 02:24:22;;;;;;;6.45;1.38;;;11.20;99.90;;;;;;5054629;28;20116;-66
2023/01/05 02:27:08;;;;;;;8.07;1.33;;;11.20;99.90;;;;;;5054278;28;20033;-65
2023/01/05 02:30:00;;;;;;;8.98;1.35;;;11.20;99.90;;;;;;5055710;28;20094;-66
2023/01/05 02:32:54;;;;;;;9.80;1.10;;;11.20;99.90;;;;;;5054588;28;20021;-65
2023/01/05 02:35:25;;;;;;;14.30;1.60;;;11.10;99.90;;;;;;5055694;28;20067;-65
2023/01/05 02:38:02;;;;;;;9.25;1.70;;;11.10;99.90;;;;;;5056179;28;20021;-65
2023/01/05 02:40:33;;;;;;;11.35;2.05;;;11.10;99.90;;;;;;5055581;28;20028;-65
2023/01/05 02:43:00;;;;;;;9.70;1.70;;;11.00;99.90;;;;;;5055193;28;20124;-65
2023/01/05 02:45:25;;;;;;;12.98;2.13;;;11.00;99.90;;;;;;5054622;28;20029;-65
2023/01/05 02:47:51;;;;;;;18.52;1.90;;;11.00;99.90;;;;;;5054135;28;20025;-65
2023/01/05 02:50:23;;;;;;;11.20;2.25;;;11.00;99.90;;;;;;5055467;28;20025;-65
2023/01/05 02:52:59;;;;;;;6.20;1.50;;;11.10;99.90;;;;;;5055423;28;20045;-66
2023/01/05 02:55:48;;;;;;;13.70;1.40;;;11.10;99.90;;;;;;5055905;28;20111;-65
2023/01/05 02:58:22;;;;;;;9.52;1.65;;;11.10;99.90;;;;;;5055166;28;20025;-66
2023/01/05 03:00:55;;;;;;;8.65;1.65;;;11.10;99.90;;;;;;5054726;28;20024;-66
2023/01/05 03:03:25;;;;;;;10.80;1.83;;;11.10;99.90;;;;;;5055195;28;20025;-66
2023/01/05 03:06:05;;;;;;;13.85;2.42;;;11.10;99.90;;;;;;5053846;28;20029;-66
2023/01/05 03:08:32;;;;;;;7.50;1.77;;;11.20;99.90;;;;;;5055692;28;20112;-66
2023/01/05 03:13:54;;;;;;;7.40;1.50;;;11.20;99.90;;;;;;5055257;28;20036;-65
2023/01/05 03:16:29;;;;;;;7.22;1.38;;;11.30;99.90;;;;;;5055195;28;20017;-65
2023/01/05 03:35:38;;;;;;;12.77;1.92;;;11.40;99.90;;;;;;5055078;28;20067;-66
2023/01/05 03:38:16;;;;;;;8.30;1.33;;;11.40;99.90;;;;;;5053189;28;20055;-66
2023/01/05 03:40:43;;;;;;;8.38;1.58;;;11.50;99.90;;;;;;5053788;28;20025;-66
2023/01/05 03:43:08;;;;;;;17.95;2.10;;;11.50;99.90;;;;;;5054631;28;20021;-66
2023/01/05 03:45:40;;;;;;;6.85;1.73;;;11.40;99.90;;;;;;5054366;28;20025;-66
2023/01/05 03:48:06;;;;;;;9.35;2.00;;;11.40;99.90;;;;;;5054268;28;20454;-66
2023/01/05 03:50:33;;;;;;;10.18;1.77;;;11.40;99.90;;;;;;5054829;28;20116;-66
2023/01/05 03:52:58;;;;;;;24.52;3.00;;;11.50;99.90;;;;;;5052837;28;20048;-66
2023/01/05 03:55:24;;;;;;;6.70;1.70;;;11.50;99.90;;;;;;5054272;28;20060;-66
2023/01/05 03:57:49;;;;;;;16.98;2.10;;;11.50;99.90;;;;;;5054081;28;20100;-66
2023/01/05 04:00:15;;;;;;;12.40;2.03;;;11.50;99.90;;;;;;5053468;28;20052;-66
2023/01/05 04:02:41;;;;;;;12.60;1.67;;;11.50;99.90;;;;;;5053043;28;20021;-66
2023/01/05 04:05:07;;;;;;;18.02;2.92;;;11.60;99.90;;;;;;5052739;28;20115;-66
2023/01/05 04:07:32;;;;;;;14.52;2.55;;;11.60;99.90;;;;;;5054130;28;20108;-66
2023/01/05 04:10:00;;;;;;;13.60;2.55;;;11.50;99.90;;;;;;5052687;28;20111;-66
2023/01/05 04:12:25;;;;;;;13.45;1.92;;;11.50;99.90;;;;;;5054041;28;20025;-66
2023/01/05 04:14:51;;;;;;;13.77;2.05;;;11.50;99.90;;;;;;5052803;28;20029;-66
2023/01/05 04:17:16;;;;;;;13.55;2.88;;;11.60;99.90;;;;;;5053681;28;20024;-66
2023/01/05 04:19:42;;;;;;;10.38;1.73;;;11.60;99.90;;;;;;5052797;28;20049;-66
2023/01/05 04:22:07;;;;;;;11.48;1.85;;;11.70;99.90;;;;;;5052932;28;20507;-65
2023/01/05 04:24:33;;;;;;;16.92;2.55;;;11.60;99.90;;;;;;5052281;28;20028;-66
2023/01/05 04:26:58;;;;;;;12.48;1.83;;;11.60;99.90;;;;;;5053094;28;20033;-66
2023/01/05 04:29:24;;;;;;;15.30;1.80;;;11.50;99.90;;;;;;5052231;28;20119;-66
2023/01/05 04:31:49;;;;;;;17.98;2.35;;;11.50;99.90;;;;;;5052211;28;20024;-66
2023/01/05 04:34:15;;;;;;;18.90;2.85;;;11.50;99.90;;;;;;5052092;28;20033;-66
2023/01/05 04:36:41;;;;;;;8.77;1.73;;;11.60;99.90;;;;;;5053388;28;20070;-66
2023/01/05 04:39:06;;;;;;;14.35;1.88;;;11.60;99.90;;;;;;5053530;28;20109;-66
2023/01/05 04:41:32;;;;;;;15.43;2.30;;;11.60;99.90;;;;;;5051774;28;20036;-66
2023/01/05 04:43:57;;;;;;;11.55;1.83;;;11.50;99.90;;;;;;5051890;28;20119;-66
2023/01/05 04:46:23;;;;;;;10.73;2.80;;;11.50;99.90;;;;;;5051930;28;20054;-66
2023/01/05 04:48:48;;;;;;;14.38;1.90;;;11.50;99.90;;;;;;5053185;28;20040;-66
2023/01/05 04:51:14;;;;;;;9.10;1.90;;;11.50;99.90;;;;;;5052222;28;20029;-66
2023/01/05 04:53:39;;;;;;;13.52;1.38;;;11.40;99.90;;;;;;5051843;28;20037;-65
2023/01/05 04:56:05;;;;;;;9.25;1.73;;;11.40;99.90;;;;;;5051906;28;20051;-65
2023/01/05 04:58:31;;;;;;;9.57;1.25;;;11.40;99.90;;;;;;5051801;28;20070;-66
2023/01/05 05:00:56;;;;;;;12.13;1.70;;;11.40;99.90;;;;;;5052236;28;20058;-66
2023/01/05 05:03:22;;;;;;;17.58;2.83;;;11.30;99.90;;;;;;5052085;28;20078;-66
2023/01/05 05:05:48;;;;;;;16.35;4.20;;;11.30;99.90;;;;;;5051908;28;20029;-65
2023/01/05 05:08:13;;;;;;;13.23;2.28;;;11.30;99.90;;;;;;5051722;28;20037;-66
2023/01/05 05:10:39;;;;;;;11.07;1.58;;;11.30;99.90;;;;;;5053030;28;20021;-66
2023/01/05 05:13:04;;;;;;;15.70;2.03;;;11.30;99.90;;;;;;5051641;28;20027;-66
2023/01/05 05:15:30;;;;;;;9.45;1.60;;;11.30;99.90;;;;;;5051762;28;20029;-66
2023/01/05 05:17:55;;;;;;;6.63;1.70;;;11.30;99.90;;;;;;5051594;28;20021;-66
2023/01/05 05:20:21;;;;;;;11.65;1.73;;;11.30;99.90;;;;;;5051637;28;20017;-66
2023/01/05 05:22:46;;;;;;;11.75;1.92;;;11.30;99.90;;;;;;5052773;28;20044;-66
2023/01/05 05:25:12;;;;;;;10.13;1.50;;;11.30;99.90;;;;;;5051737;28;20021;-66
2023/01/05 05:27:37;;;;;;;16.13;1.70;;;11.20;99.90;;;;;;5086184;22;20055;-67
2023/01/05 05:30:04;;;;;;;9.95;1.52;;;11.20;99.90;;;;;;5071504;28;20035;-67
2023/01/05 05:32:30;;;;;;;10.98;1.85;;;11.20;99.90;;;;;;5071778;28;20024;-67
2023/01/05 05:34:55;;;;;;;16.75;1.98;;;11.10;99.90;;;;;;5073294;28;20127;-67
2023/01/05 05:37:21;;;;;;;13.38;3.05;;;11.20;99.90;;;;;;5071498;28;20028;-67
2023/01/05 05:39:46;;;;;;;22.88;3.10;;;11.20;99.90;;;;;;5071455;28;20021;-67
2023/01/05 05:42:12;;;;;;;11.63;1.73;;;11.10;99.90;;;;;;5071512;28;20024;-67
2023/01/05 05:44:38;;;;;;;5.68;1.40;;;11.10;99.90;;;;;;5071521;28;20047;-67
2023/01/05 05:47:04;;;;;;;10.95;2.30;;;11.20;99.90;;;;;;5071636;28;20024;-67
2023/01/05 05:49:29;;;;;;;11.90;2.05;;;11.10;99.90;;;;;;5071575;28;20020;-67
2023/01/05 05:51:55;;;;;;;13.00;1.77;;;11.10;99.90;;;;;;5071358;28;20021;-67
2023/01/05 05:54:20;;;;;;;9.13;1.90;;;11.20;99.90;;;;;;5075517;28;20047;-67
2023/01/05 05:56:46;;;;;;;6.13;1.67;;;11.10;99.90;;;;;;5075091;28;20025;-67
2023/01/05 05:59:11;;;;;;;11.05;1.90;;;11.20;99.90;;;;;;5076360;28;20028;-67
2023/01/05 06:01:37;;;;;;;12.77;2.72;;;11.10;99.90;;;;;;5076627;28;20087;-67
2023/01/05 06:04:02;;;;;;;10.43;2.05;;;11.20;99.90;;;;;;5074998;28;20028;-67
2023/01/05 06:06:28;;;;;;;12.05;2.08;;;11.10;99.90;;;;;;5074912;28;20411;-66
2023/01/05 06:08:54;;;;;;;9.25;1.83;;;11.20;99.90;;;;;;5075191;28;20056;-67
2023/01/05 06:11:19;;;;;;;9.60;1.65;;;11.10;99.90;;;;;;5074863;28;20031;-67
2023/01/05 06:13:45;;;;;;;11.10;1.50;;;11.10;99.90;;;;;;5075902;28;20025;-67
2023/01/05 06:16:10;;;;;;;6.95;1.42;;;11.10;99.90;;;;;;5074789;28;20027;-67
2023/01/05 06:18:36;;;;;;;9.73;2.05;;;11.10;99.90;;;;;;5075146;28;20016;-67
2023/01/05 06:21:02;;;;;;;13.68;2.78;;;11.00;99.90;;;;;;5075032;28;20028;-67
2023/01/05 06:23:27;;;;;;;8.48;2.03;;;11.00;99.90;;;;;;5074653;28;20025;-67
2023/01/05 06:25:53;;;;;;;9.55;1.80;;;11.10;99.90;;;;;;5076206;28;20028;-67
2023/01/05 06:28:18;;;;;;;13.75;2.13;;;11.10;99.90;;;;;;5074697;28;20032;-67
2023/01/05 06:30:44;;;;;;;13.23;1.88;;;11.10;99.90;;;;;;5074696;28;20029;-67
2023/01/05 06:33:09;;;;;;;11.75;2.08;;;11.10;99.90;;;;;;5074443;28;20039;-67
2023/01/05 06:35:35;;;;;;;12.55;1.80;;;11.10;99.90;;;;;;5074544;28;20066;-67
2023/01/05 06:38:00;;;;;;;6.88;1.58;;;11.10;99.90;;;;;;5075686;28;20080;-67
2023/01/05 06:40:26;;;;;;;16.77;2.42;;;11.10;99.90;;;;;;5074403;28;20158;-67
2023/01/05 06:42:51;;;;;;;13.13;1.73;;;11.10;99.90;;;;;;5074623;28;20531;-67
2023/01/05 06:45:17;;;;;;;6.32;1.55;;;11.10;99.90;;;;;;5074675;28;20214;-67
2023/01/05 06:47:43;;;;;;;10.48;2.00;;;11.10;99.90;;;;;;5074136;28;20063;-67
2023/01/05 06:50:09;;;;;;;13.98;1.73;;;11.10;99.90;;;;;;5074231;28;20025;-67
2023/01/05 06:52:38;;;;;;;7.63;1.60;;;11.00;99.90;;;;;;5074957;28;20025;-67
2023/01/05 06:55:05;;;;;;;17.75;2.33;;;10.90;99.90;;;;;;5074097;28;20025;-67
2023/01/05 06:57:31;;;;;;;11.77;1.80;;;10.90;99.90;;;;;;5074879;28;20021;-67
2023/01/05 06:59:56;;;;;;;19.17;3.33;;;11.00;99.90;;;;;;5074316;28;20023;-66
2023/01/05 07:02:21;;;;;;;20.27;2.72;;;10.90;99.90;;;;;;5073829;28;20020;-68
2023/01/05 07:04:47;;;;;;;18.65;2.67;;;10.80;99.90;;;;;;5074821;28;20033;-68
2023/01/05 07:07:14;;;;;;;11.75;2.70;;;10.80;99.90;;;;;;5074021;28;20024;-68
2023/01/05 07:09:40;;;;;;;18.25;1.95;;;10.70;99.90;;;;;;5073741;28;20032;-68
2023/01/05 07:12:05;;;;;;;16.17;2.35;;;10.70;99.90;;;;;;5073742;28;20031;-68
2023/01/05 07:14:31;;;;;;;12.60;2.22;;;10.70;99.90;;;;;;5074864;28;20108;-68
2023/01/05 07:16:57;;;;;;;13.65;3.33;;;10.60;99.90;;;;;;5073978;28;20032;-68
2023/01/05 07:19:22;;;;;;;13.38;2.05;;;10.70;99.90;;;;;;5073902;28;20024;-68
2023/01/05 07:21:48;;;;;;;14.85;2.95;;;10.70;99.90;;;;;;5074495;28;20025;-68
2023/01/05 07:24:13;;;;;;;11.77;2.00;;;10.70;99.90;;;;;;5073858;28;20032;-68
2023/01/05 07:26:39;;;;;;;16.20;2.45;;;10.70;99.90;;;;;;5073711;28;20033;-68
2023/01/05 07:29:04;;;;;;;13.60;2.15;;;10.80;99.90;;;;;;5074441;28;20028;-68
2023/01/05 07:31:30;;;;;;;10.05;2.35;;;10.90;99.90;;;;;;5073329;28;20525;-68
2023/01/05 07:33:55;;;;;;;11.27;2.72;;;10.90;99.90;;;;;;5074495;28;20021;-68
2023/01/05 07:36:22;;;;;;;14.30;3.30;;;10.90;99.90;;;;;;5074121;28;20155;-68
2023/01/05 07:38:48;;;;;;;16.40;2.15;;;10.90;99.90;;;;;;5074403;28;20044;-68
2023/01/05 07:41:13;;;;;;;13.18;2.58;;;10.80;99.90;;;;;;5074437;28;20028;-68
2023/01/05 07:43:39;;;;;;;14.68;2.90;;;10.80;99.90;;;;;;5073657;28;20051;-68
2023/01/05 07:46:04;;;;;;;11.07;3.03;;;10.70;99.90;;;;;;5073236;28;20052;-68
2023/01/05 07:48:30;;;;;;;10.25;3.10;;;10.70;99.90;;;;;;5072934;28;20025;-68
2023/01/05 07:51:03;;;;;;;13.50;2.25;;;10.70;99.90;;;;;;5077057;28;20024;-67
2023/01/05 07:53:30;;;;;;;27.05;5.03;;;10.50;99.90;;;;;;5093113;28;20035;-68
2023/01/05 07:55:58;;;;;;;14.75;2.75;;;10.50;99.90;;;;;;5093549;28;20489;-69
2023/01/05 07:58:23;;;;;;;17.33;2.60;;;10.50;99.90;;;;;;5093081;28;20039;-68
2023/01/05 08:00:49;;;;;;;26.75;6.55;;;10.50;99.90;;;;;;5093065;28;20024;-68
2023/01/05 08:03:15;;;;;;;19.92;4.22;;;10.50;99.90;;;;;;5093290;28;20497;-68
2023/01/05 08:05:40;;;;;;;25.15;5.70;;;10.50;99.90;;;;;;5092981;28;20111;-68
2023/01/05 08:08:06;;;;;;;20.33;4.13;;;10.50;99.90;;;;;;5092903;28;20065;-68
2023/01/05 08:10:31;;;;;;;14.82;4.05;;;10.50;99.90;;;;;;5094070;28;20032;-68
2023/01/05 08:15:46;;;;;;;13.43;2.58;;;10.60;99.90;;;;;;5094386;28;20094;-68
2023/01/05 08:18:11;;;;;;;24.52;3.90;;;10.60;99.90;;;;;;5092161;28;20024;-68
2023/01/05 08:20:37;;;;;;;29.85;3.00;;;10.50;99.90;;;;;;5093558;28;20025;-68
2023/01/05 08:23:02;;;;;;;21.35;2.85;;;10.60;99.90;;;;;;5093335;28;20028;-68
2023/01/05 08:25:28;;;;;;;17.80;2.53;;;10.60;99.90;;;;;;5093858;28;20032;-68
2023/01/05 08:27:53;;;;;;;12.07;2.70;;;10.60;99.90;;;;;;5092457;28;20055;-68
2023/01/05 08:30:19;;;;;;;18.10;2.85;;;10.70;99.90;;;;;;5092759;28;20387;-68
2023/01/05 08:32:44;;;;;;;11.80;2.00;;;10.70;99.90;;;;;;5092824;28;20036;-68
2023/01/05 08:35:10;;;;;;;23.85;4.53;;;10.70;99.90;;;;;;5092338;28;20052;-68
2023/01/05 08:37:36;;;;;;;14.10;3.05;;;10.70;99.90;;;;;;5092669;28;20020;-68
2023/01/05 08:40:02;;;;;;;17.50;3.00;;;10.70;99.90;;;;;;5092423;28;20494;-68
2023/01/05 08:42:27;;;;;;;17.38;3.05;;;10.60;99.90;;;;;;5092299;28;20089;-68
2023/01/05 08:44:53;;;;;;;16.25;3.42;;;10.70;99.90;;;;;;5092357;28;20483;-68
2023/01/05 08:47:18;;;;;;;19.45;4.15;;;10.70;99.90;;;;;;5092111;28;20035;-69
2023/01/05 08:49:44;;;;;;;15.82;2.70;;;10.70;99.90;;;;;;5092540;28;20059;-69
2023/01/05 08:52:09;;;;;;;17.48;2.33;;;10.70;99.90;;;;;;5092150;28;20024;-69
2023/01/05 08:54:35;;;;;;;23.13;2.97;;;10.80;99.90;;;;;;5081645;28;20070;-69
2023/01/05 08:57:00;;;;;;;18.52;2.72;;;10.70;99.90;;;;;;5071855;28;20523;-69
2023/01/05 08:59:26;;;;;;;16.83;3.00;;;10.70;99.90;;;;;;5072976;28;20021;-69
2023/01/05 09:01:52;;;;;;;13.50;2.40;;;10.80;99.90;;;;;;5072093;28;20019;-69
2023/01/05 09:04:17;;;;;;;16.60;2.95;;;10.90;99.90;;;;;;5071847;28;20024;-70
2023/01/05 09:06:43;;;;;;;19.15;3.83;;;10.90;99.90;;;;;;5071736;28;20036;-69
2023/01/05 09:09:09;;;;;;;15.77;3.38;;;11.00;99.90;;;;;;5071891;28;20028;-69
2023/01/05 09:11:34;;;;;;;13.02;2.75;;;11.00;99.90;;;;;;5073009;28;20025;-69
2023/01/05 09:14:01;;;;;;;18.20;3.65;;;11.00;99.90;;;;;;5071850;28;20025;-69
2023/01/05 09:16:30;;;;;;;12.75;2.90;;;11.10;99.90;;;;;;5072728;28;20020;-69
2023/01/05 09:18:57;;;;;;;9.98;3.28;;;11.20;99.90;;;;;;5073161;28;20103;-68
2023/01/05 09:21:22;;;;;;;15.85;2.80;;;11.20;99.90;;;;;;5071975;28;20479;-69
2023/01/05 09:23:48;;;;;;;16.20;2.50;;;11.30;99.90;;;;;;5071616;28;20029;-69
2023/01/05 09:26:14;;;;;;;14.20;3.15;;;11.20;99.90;;;;;;5071585;28;20025;-69
2023/01/05 09:28:41;;;;;;;17.52;3.00;;;11.20;99.90;;;;;;5075094;28;20036;-69
2023/01/05 09:31:13;;;;;;;15.15;2.97;;;11.20;99.90;;;;;;5075581;28;20036;-69
2023/01/05 09:33:39;;;;;;;9.43;2.83;;;11.20;99.90;;;;;;5075751;28;20083;-69
2023/01/05 09:36:06;;;;;;;15.88;2.78;;;11.20;99.90;;;;;;5076235;28;20025;-69
2023/01/05 09:38:32;;;;;;;10.75;2.33;;;11.10;99.90;;;;;;5075407;28;20016;-69
2023/01/05 09:41:05;;;;;;;12.40;2.47;;;11.10;99.90;;;;;;5075448;28;20021;-69
2023/01/05 09:43:36;;;;;;;13.07;2.20;;;11.10;99.90;;;;;;5076736;28;20106;-69
2023/01/05 09:46:12;;;;;;;14.90;3.10;;;11.10;99.90;;;;;;5076748;28;20025;-69
2023/01/05 09:48:41;;;;;;;15.25;3.22;;;11.10;99.90;;;;;;5076527;28;20079;-69
2023/01/05 09:51:08;;;;;;;12.25;2.83;;;11.20;99.90;;;;;;5075555;28;20023;-69
2023/01/05 09:53:34;;;;;;;18.63;3.10;;;11.20;99.90;;;;;;5075116;28;20031;-69
2023/01/05 09:56:00;;;;;;;12.60;2.30;;;11.30;99.90;;;;;;5075420;28;20025;-69
2023/01/05 09:58:29;;;;;;;15.82;2.50;;;11.30;99.90;;;;;;5074979;28;20016;-69
2023/01/05 10:01:16;;;;;;;14.55;3.05;;;11.30;99.90;;;;;;5076346;28;20027;-69
2023/01/05 10:04:20;;;;;;;11.90;2.53;;;11.20;99.90;;;;;;5074767;28;20032;-68
2023/01/05 10:06:50;;;;;;;18.05;2.10;;;11.30;99.90;;;;;;5073836;28;20107;-68
2023/01/05 10:09:20;;;;;;;18.17;3.45;;;11.30;99.90;;;;;;5074269;28;20021;-68
2023/01/05 10:14:46;;;;;;;14.23;2.20;;;11.20;99.90;;;;;;5074965;28;20046;-69
2023/01/05 10:17:18;;;;;;;14.70;2.78;;;11.30;99.90;;;;;;5073640;28;20024;-68
2023/01/05 10:19:45;;;;;;;16.45;3.40;;;11.30;99.90;;;;;;5073814;28;20036;-68
2023/01/05 10:22:45;;;;;;;6.25;2.22;;;11.30;99.90;;;;;;5073922;28;20029;-69
2023/01/05 10:25:22;;;;;;;16.38;2.17;;;11.30;99.90;;;;;;5076166;28;20036;-68
2023/01/05 10:28:04;;;;;;;20.33;2.75;;;11.30;99.90;;;;;;5075536;28;20063;-68
2023/01/05 10:30:56;;;;;;;14.55;2.33;;;11.30;99.90;;;;;;5074586;28;20024;-68
2023/01/05 10:33:35;;;;;;;16.42;2.78;;;11.40;99.90;;;;;;5074455;28;20400;-68
2023/01/05 10:36:27;;;;;;;11.93;2.33;;;11.40;99.90;;;;;;5076270;28;20031;-68
2023/01/05 10:39:21;;;;;;;9.27;2.03;;;11.40;99.90;;;;;;5075500;28;20107;-68
2023/01/05 10:42:00;;;;;;;13.32;2.35;;;11.50;99.90;;;;;;5073814;28;20020;-68
2023/01/05 10:44:25;;;;;;;20.17;2.58;;;11.60;99.90;;;;;;5075258;28;20029;-68
2023/01/05 10:46:51;;;;;;;10.25;2.28;;;11.60;99.90;;;;;;5074172;28;20020;-68
2023/01/05 10:49:36;;;;;;;12.73;3.42;;;11.60;99.90;;;;;;5075460;28;20025;-68
2023/01/05 10:52:02;;;;;;;14.48;3.10;;;11.70;99.90;;;;;;5074291;28;20020;-68
2023/01/05 10:54:39;;;;;;;16.08;2.80;;;11.70;99.90;;;;;;5075327;28;20046;-68
2023/01/05 10:57:31;;;;;;;16.40;3.38;;;11.70;99.90;;;;;;5075314;28;20027;-68
2023/01/05 11:00:01;;;;;;;14.98;2.22;;;11.80;99.90;;;;;;5074083;28;20028;-68
2023/01/05 11:02:36;;;;;;;16.98;3.25;;;11.70;99.90;;;;;;5073990;28;20024;-68
2023/01/05 11:05:10;;;;;;;14.13;2.40;;;11.70;99.90;;;;;;5075624;28;20025;-68
2023/01/05 11:07:50;;;;;;;10.27;2.00;;;11.80;99.90;;;;;;5075482;28;20025;-68
2023/01/05 11:10:32;;;;;;;14.35;2.50;;;11.70;99.90;;;;;;5073883;28;20079;-68
2023/01/05 11:13:06;;;;;;;;;;;11.60;99.90;;;;;;5076057;28;20096;-68
2023/01/05 11:15:39;;;;;;;11.20;2.72;;;11.60;99.90;;;;;;5074406;28;19908;-68
2023/01/05 11:18:18;;;;;;;14.65;2.10;;;11.50;99.90;;;;;;5075016;28;20056;-68
2023/01/05 11:21:08;;;;;;;14.95;3.80;;;11.60;99.90;;;;;;5073610;28;20024;-68
2023/01/05 11:23:37;;;;;;;17.05;2.30;;;11.70;99.90;;;;;;5075214;28;20024;-68
2023/01/05 11:26:18;;;;;;;13.73;3.20;;;11.70;99.90;;;;;;5073383;28;20074;-68
2023/01/05 11:28:59;;;;;;;23.40;3.60;;;11.80;99.90;;;;;;5082414;22;20055;-65
2023/01/05 11:31:37;;;;;;;20.60;4.20;;;11.70;99.90;;;;;;5053259;28;20050;-64
2023/01/05 11:34:13;;;;;;;15.40;3.10;;;11.80;99.90;;;;;;5054419;28;20033;-65
2023/01/05 11:36:40;;;;;;;24.45;3.58;;;11.80;99.90;;;;;;5053804;28;20017;-65
2023/01/05 11:39:15;;;;;;;15.25;2.97;;;11.80;99.90;;;;;;5053016;28;20059;-64
2023/01/05 11:41:42;;;;;;;17.20;2.92;;;11.90;99.90;;;;;;5053137;28;20017;-64
2023/01/05 11:44:19;;;;;;;10.77;2.95;;;11.80;99.90;;;;;;5053083;28;20025;-64
2023/01/05 11:46:44;;;;;;;20.13;3.33;;;11.70;99.90;;;;;;5053044;28;20052;-64
2023/01/05 11:49:10;;;;;;;13.27;2.53;;;11.70;99.90;;;;;;5052964;28;20436;-64
2023/01/05 11:51:39;;;;;;;21.38;3.70;;;11.70;99.90;;;;;;5053890;28;20028;-64
2023/01/05 11:54:23;;;;;;;18.67;3.55;;;11.70;99.90;;;;;;5053938;28;20052;-64
2023/01/05 11:57:05;;;;;;;19.10;3.15;;;11.80;99.90;;;;;;5053045;28;20052;-64
2023/01/05 11:59:36;;;;;;;24.63;3.53;;;11.70;99.90;;;;;;5054076;28;20496;-64
2023/01/05 12:02:14;;;;;;;16.98;4.22;;;11.60;99.90;;;;;;5052684;28;20027;-64
2023/01/05 12:04:51;;;;;;;17.63;2.78;;;11.60;99.90;;;;;;5053921;28;20029;-64
2023/01/05 12:07:23;;;;;;;13.80;2.40;;;11.70;99.90;;;;;;5053898;28;20025;-64
2023/01/05 12:10:03;;;;;;;22.27;3.08;;;11.70;99.90;;;;;;5054479;28;20050;-64
2023/01/05 12:12:31;;;;;;;15.07;2.85;;;11.70;99.90;;;;;;5053515;28;20029;-64
2023/01/05 12:15:00;;;;;;;19.88;3.00;;;11.60;99.90;;;;;;5052443;28;20021;-64
2023/01/05 12:17:36;;;;;;;11.57;1.95;;;11.70;99.90;;;;;;5052313;28;20060;-64
2023/01/05 12:20:28;;;;;;;15.38;2.80;;;11.70;99.90;;;;;;5053217;28;20017;-64
2023/01/05 12:23:06;;;;;;;11.48;3.03;;;11.70;99.90;;;;;;5053678;28;20020;-64
2023/01/05 12:25:57;;;;;;;15.88;2.85;;;11.70;99.90;;;;;;5052860;28;20025;-64
2023/01/05 12:28:53;;;;;;;15.85;3.33;;;11.70;99.90;;;;;;5052443;28;20056;-64
2023/01/05 12:31:34;;;;;;;17.08;3.17;;;11.60;99.90;;;;;;5054013;28;20100;-64
2023/01/05 12:34:41;;;;;;;13.48;3.25;;;11.80;99.90;;;;;;5052154;28;20074;-64
2023/01/05 12:37:32;;;;;;;20.73;3.50;;;11.90;99.90;;;;;;5011635;28;20064;-64
2023/01/05 12:40:15;;;;;;;19.40;4.25;;;11.90;99.90;;;;;;5011846;28;20037;-64
2023/01/05 12:42:59;;;;;;;13.65;3.83;;;12.00;99.90;;;;;;4995186;28;20025;-65
2023/01/05 12:46:14;;;;;;;24.83;3.67;;;12.00;99.90;;;;;;4995591;28;20413;-66
2023/01/05 12:48:47;;;;;;;13.95;2.17;;;12.00;99.90;;;;;;4953066;28;20109;-66
2023/01/05 12:51:21;;;;;;;12.70;3.22;;;12.10;99.90;;;;;;4953715;29;20039;-66
2023/01/05 12:54:04;;;;;;;15.43;2.85;;;12.10;99.90;;;;;;4953158;29;20110;-66
2023/01/05 12:56:43;;;;;;;11.45;2.72;;;12.20;99.90;;;;;;4937051;29;20087;-66
2023/01/05 12:59:12;;;;;;;14.63;2.40;;;12.20;99.90;;;;;;4937231;29;20062;-66
2023/01/05 13:01:44;;;;;;;11.32;3.05;;;12.10;99.90;;;;;;4953045;29;20026;-66
2023/01/05 13:04:24;;;;;;;16.13;2.42;;;12.10;99.90;;;;;;4936491;29;20046;-66
2023/01/05 13:06:54;;;;;;;16.20;2.83;;;12.20;99.90;;;;;;4953178;28;20039;-65
2023/01/05 13:09:22;;;;;;;11.75;2.65;;;12.20;99.90;;;;;;4936916;29;20031;-65
2023/01/05 13:12:12;;;;;;;13.93;3.75;;;12.30;99.90;;;;;;4967366;28;20113;-66
2023/01/05 13:14:51;;;;;;;18.58;3.38;;;12.30;99.90;;;;;;4975285;28;20026;-66
2023/01/05 13:17:31;;;;;;;11.70;2.42;;;12.30;99.90;;;;;;4975760;28;20073;-65
2023/01/05 13:20:29;;;;;;;12.80;2.38;;;12.30;99.90;;;;;;5029800;28;20060;-65
2023/01/05 13:23:06;;;;;;;20.25;3.03;;;12.30;99.90;;;;;;5010980;28;20456;-65
2023/01/05 13:25:42;;;;;;;14.05;2.40;;;12.20;99.90;;;;;;4994672;28;20030;-66
2023/01/05 13:28:18;;;;;;;14.50;3.10;;;12.20;99.90;;;;;;4994656;28;20042;-66
2023/01/05 13:31:03;;;;;;;13.52;2.33;;;12.20;99.90;;;;;;5011009;28;20037;-66
2023/01/05 13:33:47;;;;;;;9.93;2.67;;;12.30;99.90;;;;;;4994616;28;20034;-66